ADDS METAR Data INFO
IDs: Format: Raw Decoded Include TAF

Data at: 0518 UTC 19 Jan 2018

KPWC 190455Z AUTO 00000KT 10SM CLR M07/M09 A2968 RMK AO2
KPWC 190435Z AUTO 00000KT 10SM CLR M07/M09 A2969 RMK AO2
KPWC 190415Z AUTO 00000KT 4SM BR CLR M07/M08 A2969 RMK AO2
KPWC 190355Z AUTO 00000KT 10SM CLR M08/M09 A2970 RMK AO2
KPWC 190335Z AUTO 00000KT 7SM CLR M07/M09 A2971 RMK AO2
KPWC 190315Z AUTO 00000KT 5SM BR CLR M07/M09 A2971 RMK AO2
KPWC 190255Z AUTO 00000KT 3SM BR CLR M07/M08 A2970 RMK AO2
KPWC 190235Z AUTO 15003KT 10SM CLR M07/M09 A2971 RMK AO2
KPWC 190215Z AUTO 00000KT 10SM CLR M07/M08 A2972 RMK AO2
KPWC 190155Z AUTO 00000KT 10SM CLR M07/M08 A2973 RMK AO2
KPWC 190135Z AUTO 00000KT 10SM CLR M07/M09 A2974 RMK AO2
KPWC 190115Z AUTO 00000KT 7SM CLR M06/M08 A2975 RMK AO2
KPWC 190055Z AUTO 00000KT 10SM CLR M06/M07 A2974 RMK AO2
KPWC 190035Z AUTO 00000KT 10SM CLR M07/M08 A2974 RMK AO2
KPWC 190015Z AUTO 00000KT 10SM CLR M05/M07 A2975 RMK AO2
KPWC 182355Z AUTO 00000KT 10SM CLR M04/M07 A2975 RMK AO2
KPWC 182335Z AUTO 00000KT 10SM CLR M04/M06 A2976 RMK AO2
KPWC 182315Z AUTO 00000KT 10SM CLR M03/M06 A2977 RMK AO2
KPWC 182255Z AUTO 00000KT 7SM CLR M01/M05 A2977 RMK AO2
KPWC 182235Z AUTO 00000KT 10SM CLR M01/M05 A2977 RMK AO2
KPWC 182215Z AUTO 00000KT 10SM CLR 01/M05 A2977 RMK AO2
KPWC 182155Z AUTO 00000KT 10SM CLR 01/M05 A2977 RMK AO2
KPWC 182135Z AUTO 00000KT 10SM CLR 01/M05 A2977 RMK AO2
KPWC 182115Z AUTO 22003KT 10SM CLR 01/M05 A2976 RMK AO2
KPWC 182055Z AUTO 21003KT 10SM CLR 01/M05 A2976 RMK AO2
KPWC 182036Z AUTO 21005KT 10SM CLR 01/M05 A2977 RMK AO2
KPWC 182015Z AUTO 00000KT 10SM CLR 01/M04 A2977 RMK AO2
KPWC 181955Z AUTO 23005KT 10SM CLR 01/M04 A2977 RMK AO2
KPWC 181935Z AUTO 21005KT 10SM CLR 01/M04 A2978 RMK AO2
KPWC 181915Z AUTO 00000KT 10SM CLR 01/M04 A2978 RMK AO2
KPWC 181855Z AUTO 28003KT 10SM CLR 01/M04 A2978 RMK AO2
KPWC 181835Z AUTO 30003KT 10SM CLR 01/M04 A2978 RMK AO2
KPWC 181815Z AUTO 29003KT 10SM CLR 01/M04 A2979 RMK AO2
KPWC 181756Z AUTO 30003KT 10SM SCT016 00/M04 A2980 RMK AO2
KPWC 181735Z AUTO 24004KT 10SM OVC016 M01/M05 A2980 RMK AO2
KPWC 181715Z AUTO 27003KT 10SM OVC016 M01/M06 A2982 RMK AO2
KPWC 181655Z AUTO 26003KT 10SM OVC018 M01/M06 A2981 RMK AO2
KPWC 181635Z AUTO 26003KT 10SM OVC018 M02/M07 A2982 RMK AO2
KPWC 181615Z AUTO 29004KT 10SM BKN020 M02/M07 A2982 RMK AO2
KPWC 181555Z AUTO 28005KT 10SM SCT020 M02/M07 A2982 RMK AO2
KPWC 181535Z AUTO 28005KT 10SM SCT020 M03/M07 A2981 RMK AO2
KPWC 181516Z AUTO 28006KT 10SM CLR M03/M07 A2981 RMK AO2
KPWC 181456Z AUTO 28004KT 10SM CLR M03/M07 A2980 RMK AO2
KPWC 181435Z AUTO 00000KT 10SM CLR M03/M07 A2980 RMK AO2
KPWC 181415Z AUTO 27003KT 10SM CLR M03/M07 A2979 RMK AO2
KPWC 181355Z AUTO 00000KT 10SM CLR M03/M07 A2978 RMK AO2
KPWC 181335Z AUTO 26005KT 10SM CLR M03/M07 A2978 RMK AO2
KPWC 181315Z AUTO 28006KT 10SM CLR M03/M07 A2978 RMK AO2
KPWC 181255Z AUTO 28004KT 10SM CLR M03/M07 A2977 RMK AO2
KPWC 181235Z AUTO 28005KT 10SM CLR M02/M07 A2978 RMK AO2
KPWC 181216Z AUTO 27007KT 244V304 10SM CLR M02/M07 A2978 RMK AO2
KPWC 181155Z AUTO 25008KT 10SM CLR M02/M07 A2978 RMK AO2
KPWC 181135Z AUTO 26006KT 10SM CLR M02/M07 A2978 RMK AO2
KPWC 181115Z AUTO 25005KT 10SM CLR M02/M07 A2979 RMK AO2
KPWC 181055Z AUTO 24005KT 10SM CLR M02/M07 A2979 RMK AO2
KPWC 181035Z AUTO 24006KT 10SM CLR M02/M07 A2980 RMK AO2
KPWC 181015Z AUTO 24003KT 10SM CLR M03/M07 A2981 RMK AO2
KPWC 180955Z AUTO 26005KT 10SM CLR M03/M07 A2982 RMK AO2
KPWC 180935Z AUTO 23005KT 10SM CLR M03/M07 A2982 RMK AO2
KPWC 180915Z AUTO 23006KT 10SM CLR M02/M07 A2982 RMK AO2
KPWC 180855Z AUTO 24005KT 10SM SCT110 M02/M07 A2983 RMK AO2
KPWC 180835Z AUTO 27004KT 10SM SCT080 SCT110 M02/M07 A2985 RMK AO2
KPWC 180815Z AUTO 20008KT 10SM CLR M03/M07 A2984 RMK AO2
KPWC 180755Z AUTO 00000KT 10SM CLR M03/M07 A2987 RMK AO2
KPWC 180735Z AUTO 23004KT 10SM CLR M03/M07 A2988 RMK AO2
KPWC 180715Z AUTO 25004KT 10SM CLR M03/M07 A2989 RMK AO2
KPWC 180656Z AUTO 24004KT 10SM CLR M03/M07 A2990 RMK AO2
KPWC 180635Z AUTO 25005KT 10SM CLR M03/M07 A2990 RMK AO2
KPWC 180615Z AUTO 25007KT 234V294 10SM CLR M03/M07 A2990 RMK AO2
KPWC 180555Z AUTO 25007KT 10SM CLR M03/M07 A2991 RMK AO2
KPWC 180535Z AUTO 25006KT 10SM CLR M03/M07 A2991 RMK AO2
KPWC 180515Z AUTO 25007KT 10SM CLR M04/M07 A2991 RMK AO2
KPWC 180455Z AUTO 25005KT 10SM CLR M04/M07 A2992 RMK AO2
KPWC 180435Z AUTO 27005KT 10SM CLR M04/M08 A2992 RMK AO2
KPWC 180415Z AUTO 26005KT 10SM CLR M04/M08 A2993 RMK AO2
KPWC 180355Z AUTO 26003KT 10SM CLR M04/M08 A2992 RMK AO2
KPWC 180335Z AUTO 25004KT 10SM CLR M04/M08 A2993 RMK AO2
KPWC 180315Z AUTO 25006KT 7SM CLR M04/M08 A2993 RMK AO2
KPWC 180255Z AUTO 24003KT 10SM CLR M05/M08 A2994 RMK AO2
KPWC 180235Z AUTO 25005KT 10SM CLR M05/M09 A2994 RMK AO2
KPWC 180215Z AUTO 26004KT 10SM CLR M05/M09 A2995 RMK AO2
KPWC 180155Z AUTO 27004KT 10SM CLR M05/M09 A2996 RMK AO2
KPWC 180135Z AUTO 00000KT 10SM CLR M05/M09 A2997 RMK AO2
KPWC 180115Z AUTO 24004KT 10SM CLR M04/M09 A2997 RMK AO2
KPWC 180055Z AUTO 25005KT 10SM CLR M04/M09 A2997 RMK AO2
KPWC 180035Z AUTO 25005KT 10SM CLR M04/M09 A2997 RMK AO2
KPWC 180015Z AUTO 25004KT 7SM CLR M04/M09 A2998 RMK AO2
KPWC 172355Z AUTO 25005KT 10SM CLR M04/M10 A2997 RMK AO2
KPWC 172335Z AUTO 25003KT 10SM CLR M04/M10 A2997 RMK AO2
KPWC 172315Z AUTO 24006KT 10SM CLR M04/M11 A2998 RMK AO2
KPWC 172255Z AUTO 25006KT 10SM CLR M03/M11 A2999 RMK AO2
KPWC 172235Z AUTO 25008KT 184V274 10SM CLR M03/M11 A2999 RMK AO2
KPWC 172215Z AUTO 25007KT 10SM CLR M03/M11 A2997 RMK AO2
KPWC 172155Z AUTO 24008KT 10SM CLR M02/M11 A2997 RMK AO2
KPWC 172135Z AUTO 25003KT 10SM CLR M02/M11 A2998 RMK AO2
KPWC 172115Z AUTO 23007G14KT 10SM CLR M02/M11 A2997 RMK AO2
KPWC 172055Z AUTO 23007KT 10SM CLR M02/M12 A2997 RMK AO2
KPWC 172035Z AUTO 23007G16KT 10SM CLR M03/M12 A2998 RMK AO2
KPWC 172016Z AUTO 24009G17KT 10SM CLR M03/M13 A2998 RMK AO2
KPWC 171955Z AUTO 25008G16KT 214V274 10SM CLR M03/M13 A2998 RMK AO2
KPWC 171935Z AUTO 23011G15KT 10SM CLR M03/M13 A2999 RMK AO2
KPWC 171915Z AUTO 23010G17KT 10SM CLR M03/M14 A3001 RMK AO2
KPWC 171855Z AUTO 23010KT 10SM CLR M04/M14 A3002 RMK AO2
KPWC 171835Z AUTO 21011G15KT 10SM CLR M04/M15 A3002 RMK AO2
KPWC 171815Z AUTO 22008KT 10SM CLR M05/M15 A3003 RMK AO2
KPWC 171755Z AUTO 23009KT 194V264 10SM CLR M06/M16 A3005 RMK AO2
KPWC 171735Z AUTO 23008G16KT 10SM CLR M06/M16 A3005 RMK AO2